Hovedside
METAR-TAF:

METAR-TAF

Lufthavner :

Khartoum, Sudan

breddegrad: 15-36N, lengdegrad: 032-33E, høyde over havet: 382 m

Gjeldene værobservasjon

Denne rapporten ble laget for 19 minutter siden, klokken 17:30 UTC
Vind 14 kt fra Sør
Temperatur 37°C
Luftfuktighet 24%
Trykk 1007 hPa
Sikt 10 km eller mer
ingen skyer under 1500 m og ingen bygeskyer

METAR: HSSS 231730Z 18014KT CAVOK 37/13 Q1007 NOSIG

Tid: 20:49 (17:49 UTC)

Varsel

Denne rapporten ble laget for 49 minutter siden, klokken 17:00 UTC
Varsel gyldig fra 23. klokken 18 UTC til 24. klokken 24 UTC
Vind 12 kt fra Sør med vindkast opp mot 22 kt
Sikt: 6000 m
Midlertidig
fra 23. klokken 20 UTC til 24. klokken 03 UTC
Sikt 10 km eller mer
Spredte skyer i en høyde av 4000 ft
Spredte skyer i en høyde av 14000 ft

TAF: HSSS 231700Z 2318/2424 19012G22KT 6000 NSC TEMPO 2320/2403 9999 SCT040 SCT140

Værobservasjoner og værvarsel for over 4000 flyplasser (METAR- og TAF-rapporter).

Tilgjengelige stasjoner er representert av de røde og gule prikkene på kartet.

Hold musepekeren over prikken for å se navnet på stasjonen.

Klikk så for å se værobservasjoner og -varsler.

For å forandre kartet kan du klikke på den grønne knappen med svart kryss for å zoome inn, på den grønne knappen med strek for å zoome ut, eller på de grønne pilene for å se tilstøtende kart.


METAR-TAF: